Taylor, TX (76574)

3:57 AM CDT on August 30, 2015 (GMT -0500)
Central Taylor | | Change Station
CLOSE
Current Station
Personal Weather Station
Location: Taylor, TX
Elevation: 582 ft
Nearby Weather Stations

Elev 582 ft 30.57 °N, 97.42 °W | Updated 8 seconds ago

Overcast
Overcast
75.2 °F
Feels Like 77 °F
N
0.0
Wind Variable Wind from SE
Gusts 0.0 mph

Today
High -- | Low -- °F
--% Chance of Precip.
Yesterday
High -- | Low -- °F
Precip. -- in
7:04 AM 7:55 PM
Waxing Gibbous, 99% visible
Pressure 30.01 in
Visibility 10.0 miles
Clouds Scattered Clouds 3300 ft
Mostly Cloudy 4700 ft
Overcast 11000 ft
Heat Index 77 °F
Dew Point 66 °F
Humidity 73%
Rainfall 0.00 in
Snow Depth Not available.
UV 0 out of 12
Pollen 6.10 out of 12
Air Quality Not available.
Flu Activity Not available.
METAR KEDC 300835Z AUTO 00000KT 10SM SCT033 BKN047 OVC110 24/19 A3001 RMK AO2
Pressure 30.01 in
Visibility 10.0 miles
Clouds Scattered Clouds 3300 ft
Mostly Cloudy 4700 ft
Overcast 11000 ft
Heat Index 77 °F
Dew Point 66 °F
Humidity 73%
Rainfall 0.00 in
Snow Depth Not available.
UV 0 out of 12
Pollen 6.10 out of 12
Air Quality Not available.
Flu Activity Not available.
METAR KEDC 300835Z AUTO 00000KT 10SM SCT033 BKN047 OVC110 24/19 A3001 RMK AO2
Nowcast | as of 2:41 am CDT on August 30, 2015

Through 4 am...very light showers will move toward the east. These showers will produce sprinkles to light rain. Rainfall totals will generally be a few hundredths of an inch...if any.

×

10-Day Weather Forecast

×

Almanac

Astronomy

Aug. 30, 2015 Rise Set
Actual Time
Civil Twilight
Nautical Twilight
Astronomical Twilight
Moon
Length of Visible Light
Length of Day
Tomorrow will be .
, % of the Moon is Illuminated

Today's Extremes

State Highs State Lows

Community

WunderPhotos

Upload Photos

1,850,909 photos uploaded!

WunderBlogs® & News

Nearby

Air Quality

  Air Quality AQ Index Pollutant
Not available.

Snow Depth

Station Depth Elevation

Earthquake Activity

City Distance Mag. Time & Date
Minimum magnitude displayed is 2.5.

Coastal Water Temperatures

Place Temperature

Stations

Nearby Weather Stations

Station Location Temp. Windchill Dew Point Humidity Wind Precip. Elev Updated Type